createdAt,value
2023-01-05T06:56:51.536Z,11.37
2023-01-05T07:01:53.311Z,11.30
2023-01-05T07:06:54.992Z,11.22
2023-01-05T07:11:56.943Z,11.29
2023-01-05T07:16:58.721Z,11.28
2023-01-05T07:22:00.586Z,11.23
2023-01-05T07:27:07.743Z,11.07
2023-01-05T07:32:11.431Z,11.06
2023-01-05T07:37:13.707Z,11.11
2023-01-05T07:42:15.583Z,11.17
2023-01-05T07:47:17.283Z,11.24
2023-01-05T07:52:18.914Z,11.13
2023-01-05T07:57:20.764Z,11.05
2023-01-05T08:02:22.570Z,11.09
2023-01-05T08:07:24.329Z,11.10
2023-01-05T08:12:27.320Z,11.07
2023-01-05T08:17:28.983Z,11.27
2023-01-05T08:22:30.609Z,11.28
2023-01-05T08:27:32.311Z,11.14
2023-01-05T08:32:34.002Z,11.18
2023-01-05T08:37:35.714Z,11.10
2023-01-05T08:42:37.425Z,11.10
2023-01-05T08:47:39.047Z,11.08
2023-01-05T08:52:41.478Z,11.05
2023-01-05T08:57:43.167Z,10.88
2023-01-05T09:02:45.056Z,10.87
2023-01-05T09:07:46.919Z,10.72
2023-01-05T09:12:48.727Z,10.65
2023-01-05T09:17:51.228Z,10.41
2023-01-05T09:22:53.127Z,10.33
2023-01-05T09:27:55.214Z,10.27
2023-01-05T09:32:56.937Z,10.34
2023-01-05T09:37:58.684Z,10.40
2023-01-05T09:43:00.626Z,10.48
2023-01-05T09:48:02.427Z,10.58
2023-01-05T09:53:05.722Z,10.66
2023-01-05T09:58:14.181Z,10.77
2023-01-05T10:03:53.615Z,10.70
2023-01-05T10:08:47.479Z,10.67
2023-01-05T10:14:02.378Z,10.65
2023-01-05T10:19:04.695Z,10.76
2023-01-05T10:24:27.480Z,10.76
2023-01-05T10:29:43.318Z,10.69
2023-01-05T10:34:57.483Z,10.59
2023-01-05T10:40:18.310Z,10.45
2023-01-05T10:45:21.454Z,10.44
2023-01-05T10:50:41.280Z,10.41
2023-01-05T10:56:01.140Z,10.33
2023-01-05T11:01:19.608Z,10.22
2023-01-05T11:06:25.848Z,10.13
2023-01-05T11:11:28.746Z,10.15
2023-01-05T11:16:34.170Z,10.24
2023-01-05T11:21:35.831Z,10.36
2023-01-05T11:26:48.192Z,10.31
2023-01-05T11:31:57.730Z,10.30
2023-01-05T11:37:07.820Z,10.50
2023-01-05T11:42:14.789Z,10.46
2023-01-05T11:47:23.290Z,10.34
2023-01-05T11:52:40.485Z,10.32
2023-01-05T11:57:42.216Z,10.34
2023-01-05T12:03:21.011Z,10.34
2023-01-05T12:15:42.442Z,10.30
2023-01-05T12:21:04.165Z,10.28
2023-01-05T12:26:21.005Z,10.29
2023-01-05T12:37:30.373Z,10.18
2023-01-05T12:43:02.443Z,10.08
2023-01-05T12:48:10.027Z,10.04
2023-01-05T12:53:17.766Z,10.02
2023-01-05T12:58:29.764Z,10.04
2023-01-05T13:03:49.430Z,9.93
2023-01-05T13:09:18.857Z,9.88
2023-01-05T13:15:24.375Z,9.91
2023-01-05T13:20:52.006Z,9.89
2023-01-05T13:26:07.077Z,9.93
2023-01-05T13:31:33.318Z,9.91
2023-01-05T13:36:53.696Z,9.92
2023-01-05T13:42:09.272Z,9.81
2023-01-05T13:47:27.040Z,9.82
2023-01-05T13:52:58.066Z,9.78
2023-01-05T13:58:01.216Z,9.59
2023-01-05T14:03:14.102Z,9.77
2023-01-05T14:08:28.962Z,9.72
2023-01-05T14:14:08.386Z,9.73
2023-01-05T14:19:23.549Z,9.80
2023-01-05T14:29:44.227Z,9.78
2023-01-05T14:34:51.939Z,9.74
2023-01-05T14:40:00.410Z,9.77
2023-01-05T14:45:22.429Z,9.74
2023-01-05T14:50:26.304Z,9.84
2023-01-05T14:55:40.902Z,9.77
2023-01-05T15:00:57.662Z,9.79
2023-01-05T15:06:08.779Z,9.86
2023-01-05T15:11:41.403Z,9.81
2023-01-05T15:17:48.367Z,9.65
2023-01-05T15:23:29.034Z,9.65
2023-01-05T15:28:48.635Z,9.61
2023-01-05T15:34:06.853Z,9.59
2023-01-05T15:39:29.368Z,9.54
2023-01-05T15:44:38.056Z,9.36
2023-01-05T15:49:40.473Z,9.13
2023-01-05T15:54:42.096Z,9.02
2023-01-05T15:59:48.747Z,9.09
2023-01-05T16:05:16.699Z,9.07
2023-01-05T16:10:28.769Z,9.12
2023-01-05T16:15:34.052Z,9.02
2023-01-05T16:20:39.944Z,8.99
2023-01-05T16:26:00.199Z,9.09
2023-01-05T16:31:13.840Z,8.98
2023-01-05T16:36:22.853Z,9.03
2023-01-05T16:41:26.736Z,9.01
2023-01-05T16:46:35.478Z,9.02
2023-01-05T16:51:39.786Z,8.78
2023-01-05T16:57:01.615Z,8.66
2023-01-05T17:02:03.382Z,8.78
2023-01-05T17:07:05.040Z,8.77
2023-01-05T17:12:07.716Z,8.59
2023-01-05T17:17:12.331Z,8.59
2023-01-05T17:22:13.925Z,8.72
2023-01-05T17:27:15.541Z,8.75
2023-01-05T17:32:17.269Z,8.70
2023-01-05T17:37:18.878Z,8.41
2023-01-05T17:42:38.775Z,8.23
2023-01-05T17:47:40.637Z,8.24
2023-01-05T17:52:50.270Z,8.17
2023-01-05T17:57:55.497Z,8.01
2023-01-05T18:03:15.228Z,7.91
2023-01-05T18:08:28.349Z,7.95
2023-01-05T18:13:37.010Z,7.93
2023-01-05T18:18:49.396Z,7.90
2023-01-05T18:23:51.469Z,7.83
2023-01-05T18:28:53.857Z,7.85
2023-01-05T18:33:55.575Z,8.07
2023-01-05T18:38:57.193Z,8.05
2023-01-05T18:43:59.074Z,8.10
2023-01-05T18:49:00.768Z,8.09
2023-01-05T18:54:02.483Z,8.02
2023-01-05T18:59:05.174Z,8.00
2023-01-05T19:04:06.998Z,7.99
2023-01-05T19:09:11.152Z,8.16
2023-01-05T19:14:14.490Z,8.40
2023-01-05T19:19:16.541Z,8.38
2023-01-05T19:24:20.985Z,8.32
2023-01-05T19:29:24.467Z,8.35
2023-01-05T19:34:26.209Z,8.35
2023-01-05T19:39:28.155Z,8.30
2023-01-05T19:44:29.969Z,8.04
2023-01-05T19:49:31.667Z,7.95
2023-01-05T19:54:33.429Z,7.87
2023-01-05T19:59:35.141Z,7.70
2023-01-05T20:04:36.905Z,7.73
2023-01-05T20:09:38.722Z,7.73
2023-01-05T20:14:41.470Z,7.68
2023-01-05T20:19:43.181Z,7.70
2023-01-05T20:24:44.904Z,7.91
2023-01-05T20:29:46.517Z,7.82
2023-01-05T20:34:59.290Z,7.89
2023-01-05T20:40:02.551Z,7.86
2023-01-05T20:45:06.215Z,7.66
2023-01-05T20:50:08.810Z,7.48
2023-01-05T20:55:10.415Z,7.37
2023-01-05T21:00:14.663Z,7.27
2023-01-05T21:05:16.580Z,7.27
2023-01-05T21:10:18.467Z,7.62
2023-01-05T21:15:20.160Z,7.72
2023-01-05T21:20:21.932Z,7.90
